createdAt,value
2024-01-06T00:00:14.518Z,9.40
2024-01-06T00:02:41.554Z,8.17
2024-01-06T00:05:08.835Z,8.30
2024-01-06T00:07:35.895Z,9.53
2024-01-06T00:10:02.847Z,10.40
2024-01-06T00:12:29.861Z,8.70
2024-01-06T00:14:56.944Z,8.83
2024-01-06T00:17:23.963Z,7.03
2024-01-06T00:19:53.622Z,9.10
2024-01-06T00:22:20.751Z,8.23
2024-01-06T00:24:47.847Z,6.80
2024-01-06T00:27:16.380Z,7.73
2024-01-06T00:29:43.619Z,7.67
2024-01-06T00:32:10.645Z,8.70
2024-01-06T00:34:37.869Z,7.47
2024-01-06T00:37:05.077Z,6.90
2024-01-06T00:39:32.125Z,7.47
2024-01-06T00:41:59.122Z,7.60
2024-01-06T00:44:26.075Z,7.33
2024-01-06T00:46:53.042Z,7.10
2024-01-06T00:49:20.195Z,7.73
2024-01-06T00:51:47.583Z,7.40
2024-01-06T00:54:14.976Z,7.60
2024-01-06T00:56:43.439Z,6.73
2024-01-06T00:59:10.636Z,7.20
2024-01-06T01:01:37.702Z,6.90
2024-01-06T01:04:04.967Z,6.90
2024-01-06T01:06:32.194Z,6.80
2024-01-06T01:08:59.155Z,6.90
2024-01-06T01:11:26.175Z,7.40
2024-01-06T01:13:53.203Z,8.00
2024-01-06T01:16:20.184Z,8.30
2024-01-06T01:18:47.581Z,8.70
2024-01-06T01:21:16.049Z,7.70
2024-01-06T01:23:44.772Z,7.57
2024-01-06T01:26:11.862Z,7.70
2024-01-06T01:28:38.918Z,6.67
2024-01-06T01:31:06.100Z,7.53
2024-01-06T01:33:33.351Z,6.80
2024-01-06T01:36:02.646Z,6.77
2024-01-06T01:38:30.148Z,7.77
2024-01-06T01:40:57.085Z,6.60
2024-01-06T01:43:24.519Z,7.43
2024-01-06T01:45:55.676Z,7.17
2024-01-06T01:48:25.401Z,7.03
2024-01-06T01:50:54.438Z,7.07
2024-01-06T01:53:21.981Z,6.53
2024-01-06T01:55:49.465Z,6.97
2024-01-06T01:58:17.620Z,7.07
2024-01-06T02:00:44.762Z,6.40
2024-01-06T02:03:14.784Z,6.33
2024-01-06T02:05:42.256Z,6.73
2024-01-06T02:08:09.740Z,7.33
2024-01-06T02:10:36.866Z,6.10
2024-01-06T02:13:14.241Z,6.37
2024-01-06T02:15:41.745Z,5.83
2024-01-06T02:18:10.428Z,6.67
2024-01-06T02:20:39.006Z,5.67
2024-01-06T02:23:06.053Z,6.73
2024-01-06T02:25:34.474Z,6.83
2024-01-06T02:28:01.454Z,6.30
2024-01-06T02:30:28.634Z,5.70
2024-01-06T02:32:55.768Z,6.50
2024-01-06T02:35:22.857Z,5.47
2024-01-06T02:37:49.855Z,5.80
2024-01-06T02:40:16.826Z,6.30
2024-01-06T02:42:43.842Z,6.27
2024-01-06T02:45:11.162Z,6.23
2024-01-06T02:47:38.385Z,6.37
2024-01-06T02:50:06.741Z,5.90
2024-01-06T02:52:33.724Z,6.80
2024-01-06T02:55:01.914Z,6.03
2024-01-06T02:57:31.187Z,6.00
2024-01-06T02:59:58.475Z,7.80
2024-01-06T03:02:25.463Z,6.37
2024-01-06T03:04:52.396Z,6.60
2024-01-06T03:07:19.312Z,6.40
2024-01-06T03:09:46.392Z,6.90
2024-01-06T03:12:13.522Z,6.40
2024-01-06T03:14:40.496Z,6.30
2024-01-06T03:17:07.514Z,6.10
2024-01-06T03:19:34.657Z,5.83
2024-01-06T03:22:01.803Z,6.00
2024-01-06T03:24:29.020Z,5.67
2024-01-06T03:26:55.991Z,5.80
2024-01-06T03:29:23.021Z,5.70
2024-01-06T03:31:50.144Z,6.17
2024-01-06T03:34:17.457Z,6.03
2024-01-06T03:36:44.628Z,5.60
2024-01-06T03:39:11.955Z,5.80
2024-01-06T03:41:39.235Z,5.90
2024-01-06T03:44:06.387Z,5.60
2024-01-06T03:46:36.046Z,5.93
2024-01-06T03:49:03.107Z,6.87
2024-01-06T03:51:30.208Z,5.43
2024-01-06T03:53:57.263Z,5.80
2024-01-06T03:56:24.306Z,6.50
2024-01-06T03:58:51.388Z,6.33
2024-01-06T04:01:18.424Z,5.27
2024-01-06T04:03:45.543Z,5.40
2024-01-06T04:06:12.729Z,5.97
2024-01-06T04:08:42.399Z,4.93
2024-01-06T04:11:09.329Z,5.87
2024-01-06T04:13:36.265Z,6.20
2024-01-06T04:16:03.765Z,5.77
2024-01-06T04:18:30.995Z,5.40
2024-01-06T04:20:58.218Z,4.90
2024-01-06T04:23:26.492Z,5.20
2024-01-06T04:25:53.930Z,5.43
2024-01-06T04:28:21.013Z,6.23
2024-01-06T04:30:48.122Z,4.53
2024-01-06T04:33:15.442Z,5.70
2024-01-06T04:35:42.580Z,6.80
2024-01-06T04:38:10.191Z,5.70
2024-01-06T04:40:37.332Z,6.53
2024-01-06T04:43:04.840Z,5.43
2024-01-06T04:45:31.938Z,5.67
2024-01-06T04:47:59.206Z,5.80
2024-01-06T04:50:26.283Z,6.00
2024-01-06T04:52:53.311Z,5.30
2024-01-06T04:55:20.476Z,4.73
2024-01-06T04:57:50.692Z,5.70
2024-01-06T05:00:18.038Z,6.00
2024-01-06T05:02:45.668Z,5.53
2024-01-06T05:05:12.783Z,4.87
2024-01-06T05:07:39.766Z,5.87
2024-01-06T05:10:07.647Z,5.53
2024-01-06T05:12:34.694Z,5.03
2024-01-06T05:15:01.845Z,5.83
2024-01-06T05:17:29.029Z,6.37
2024-01-06T05:19:56.585Z,5.20
2024-01-06T05:22:23.587Z,6.00
2024-01-06T05:24:54.305Z,5.60
2024-01-06T05:27:21.607Z,5.50
2024-01-06T05:29:50.296Z,6.10
2024-01-06T05:32:18.646Z,5.30
2024-01-06T05:34:46.012Z,5.70
2024-01-06T05:37:13.106Z,6.27
2024-01-06T05:39:41.207Z,5.27
2024-01-06T05:42:11.491Z,5.20
2024-01-06T05:44:38.574Z,5.10
2024-01-06T05:47:05.886Z,6.53
2024-01-06T05:49:32.995Z,5.87
2024-01-06T05:52:00.012Z,5.50
2024-01-06T05:54:27.288Z,4.80
2024-01-06T05:56:54.264Z,5.73
2024-01-06T05:59:21.312Z,5.93
2024-01-06T06:01:48.283Z,5.20
2024-01-06T06:04:15.398Z,5.70
2024-01-06T06:06:42.434Z,5.90
2024-01-06T06:09:11.188Z,5.47
2024-01-06T06:11:38.285Z,6.83
2024-01-06T06:14:05.900Z,4.97
2024-01-06T06:16:32.920Z,5.80
2024-01-06T06:18:59.997Z,4.60
2024-01-06T06:21:27.090Z,5.43
2024-01-06T06:23:54.034Z,5.50
2024-01-06T06:26:21.084Z,5.80
2024-01-06T06:28:48.059Z,6.30
2024-01-06T06:31:15.169Z,6.70
2024-01-06T06:33:42.276Z,7.27
2024-01-06T06:36:09.325Z,5.70
2024-01-06T06:38:36.296Z,6.83
2024-01-06T06:41:03.315Z,6.20
2024-01-06T06:43:30.268Z,7.90
2024-01-06T06:45:57.201Z,6.10
2024-01-06T06:48:24.401Z,6.83
2024-01-06T06:50:51.458Z,6.70
2024-01-06T06:53:18.541Z,8.13
2024-01-06T06:55:45.629Z,7.43
2024-01-06T06:58:13.157Z,7.87
2024-01-06T07:00:40.668Z,7.20
2024-01-06T07:03:07.909Z,7.27
2024-01-06T07:05:35.010Z,6.10
2024-01-06T07:08:02.585Z,6.43
2024-01-06T07:10:29.591Z,6.63
2024-01-06T07:12:56.632Z,6.33
2024-01-06T07:15:23.671Z,6.77
2024-01-06T07:17:50.927Z,4.80
2024-01-06T07:20:17.972Z,5.70
2024-01-06T07:22:45.044Z,6.23
2024-01-06T07:25:12.066Z,6.60
2024-01-06T07:27:39.664Z,6.47
2024-01-06T07:30:09.363Z,6.37
2024-01-06T07:32:36.346Z,6.63
2024-01-06T07:35:07.375Z,8.37
2024-01-06T07:37:35.136Z,9.57
2024-01-06T07:40:02.428Z,8.67
2024-01-06T07:42:29.593Z,9.70
2024-01-06T07:44:56.672Z,8.47
2024-01-06T07:47:23.627Z,8.83
2024-01-06T07:49:52.110Z,7.20
2024-01-06T07:52:19.214Z,8.00
2024-01-06T07:54:46.215Z,7.83
2024-01-06T07:57:14.111Z,8.47
2024-01-06T07:59:41.054Z,8.23
2024-01-06T08:02:08.188Z,8.40
2024-01-06T08:04:35.442Z,8.47
2024-01-06T08:07:02.619Z,10.67
2024-01-06T08:09:29.626Z,10.10
2024-01-06T08:11:56.598Z,10.37
2024-01-06T08:14:23.603Z,10.00
2024-01-06T08:16:50.549Z,11.20
2024-01-06T08:19:17.655Z,10.10
2024-01-06T08:21:44.993Z,10.30
2024-01-06T08:24:12.098Z,9.30
2024-01-06T08:26:39.089Z,9.60
2024-01-06T08:29:06.164Z,10.60
2024-01-06T08:31:34.415Z,9.10
2024-01-06T08:34:01.724Z,10.23
2024-01-06T08:36:29.253Z,8.40
2024-01-06T08:38:56.251Z,7.60
2024-01-06T08:41:23.241Z,9.27
2024-01-06T08:43:50.209Z,7.77
2024-01-06T08:46:18.145Z,9.20
2024-01-06T08:48:45.213Z,8.80
2024-01-06T08:51:12.657Z,8.37
2024-01-06T08:53:39.615Z,9.50
2024-01-06T08:56:07.518Z,8.83
2024-01-06T08:58:34.532Z,9.80
2024-01-06T09:01:01.745Z,10.60
2024-01-06T09:03:28.800Z,8.87
2024-01-06T09:06:01.357Z,8.80
2024-01-06T09:08:28.343Z,9.53
2024-01-06T09:10:59.800Z,9.67
2024-01-06T09:13:26.938Z,11.07
2024-01-06T09:15:53.957Z,9.33
2024-01-06T09:18:21.269Z,8.10
2024-01-06T09:20:51.052Z,7.57
2024-01-06T09:23:18.512Z,8.00
2024-01-06T09:25:46.008Z,9.10
2024-01-06T09:28:13.001Z,7.30
2024-01-06T09:30:40.136Z,8.07
2024-01-06T09:33:09.248Z,9.20
2024-01-06T09:35:36.417Z,7.70
2024-01-06T09:38:03.412Z,7.90
2024-01-06T09:40:33.421Z,8.40
2024-01-06T09:43:00.392Z,9.23
2024-01-06T09:45:27.585Z,9.70
2024-01-06T09:47:57.099Z,9.33
2024-01-06T09:50:24.180Z,9.50
2024-01-06T09:52:55.255Z,9.90
2024-01-06T09:55:27.723Z,10.03
2024-01-06T09:57:55.740Z,9.10
2024-01-06T10:00:23.365Z,9.90
2024-01-06T10:02:51.957Z,9.43
2024-01-06T10:05:19.445Z,9.90
2024-01-06T10:07:47.127Z,11.50
2024-01-06T10:10:15.137Z,10.10
2024-01-06T10:12:43.402Z,10.30
2024-01-06T10:15:13.091Z,11.23
2024-01-06T10:17:41.854Z,10.83
2024-01-06T10:20:14.032Z,10.80
2024-01-06T10:22:44.079Z,12.70
2024-01-06T10:25:12.742Z,10.93
2024-01-06T10:27:42.000Z,10.77
2024-01-06T10:30:11.737Z,10.77
2024-01-06T10:32:40.600Z,12.20
2024-01-06T10:35:08.674Z,12.07
2024-01-06T10:37:36.879Z,12.73
2024-01-06T10:40:17.254Z,14.07
2024-01-06T10:42:45.977Z,12.17
2024-01-06T10:45:16.725Z,12.17
2024-01-06T10:47:45.439Z,11.57
2024-01-06T10:50:14.280Z,10.63
2024-01-06T10:52:42.836Z,9.70
2024-01-06T10:55:10.629Z,8.60
2024-01-06T10:57:39.744Z,8.90
2024-01-06T11:00:07.773Z,9.97
2024-01-06T11:02:35.948Z,8.87
2024-01-06T11:05:03.387Z,10.43
2024-01-06T11:07:30.640Z,10.00
2024-01-06T11:10:10.664Z,8.10
2024-01-06T11:12:37.617Z,9.70
2024-01-06T11:15:05.467Z,10.73
2024-01-06T11:17:55.571Z,9.10
2024-01-06T11:20:31.794Z,8.90
2024-01-06T11:23:21.834Z,9.40
2024-01-06T11:25:48.935Z,9.20
2024-01-06T11:28:18.369Z,9.90
2024-01-06T11:30:45.547Z,9.50
2024-01-06T11:33:12.842Z,10.60
2024-01-06T11:35:40.600Z,9.60
2024-01-06T11:38:08.761Z,9.93
2024-01-06T11:40:38.055Z,10.60
2024-01-06T11:43:10.824Z,10.97
2024-01-06T11:45:42.539Z,10.80
2024-01-06T11:48:13.833Z,10.13
2024-01-06T11:50:42.792Z,11.70
2024-01-06T11:53:12.878Z,10.87
2024-01-06T11:55:41.009Z,10.83
2024-01-06T11:58:08.059Z,11.70
2024-01-06T12:00:41.743Z,12.40
2024-01-06T12:03:09.545Z,12.93
2024-01-06T12:05:37.007Z,14.00
2024-01-06T12:08:07.951Z,12.30
2024-01-06T12:10:35.561Z,11.77
2024-01-06T12:13:09.824Z,11.87
2024-01-06T12:15:40.754Z,10.93
2024-01-06T12:18:08.765Z,11.87
2024-01-06T12:20:36.041Z,12.77
2024-01-06T12:23:07.396Z,12.30
2024-01-06T12:25:40.169Z,11.23
2024-01-06T12:28:08.555Z,11.50
2024-01-06T12:30:36.758Z,10.87
2024-01-06T12:33:04.758Z,11.73
2024-01-06T12:35:31.899Z,11.83
2024-01-06T12:37:58.892Z,9.57
2024-01-06T12:40:27.540Z,10.40
2024-01-06T12:42:54.691Z,12.60
2024-01-06T12:45:21.740Z,10.57
2024-01-06T12:47:48.867Z,11.13
2024-01-06T12:50:16.197Z,10.93
2024-01-06T12:52:43.260Z,11.30
2024-01-06T12:55:10.281Z,11.67
2024-01-06T12:57:37.518Z,11.30
2024-01-06T13:00:10.534Z,11.50
2024-01-06T13:02:38.173Z,11.30
2024-01-06T13:05:05.909Z,11.53
2024-01-06T13:07:33.070Z,12.70
2024-01-06T13:10:01.162Z,11.77
2024-01-06T13:12:30.285Z,10.87
2024-01-06T13:14:57.523Z,11.40
2024-01-06T13:17:24.484Z,13.17
2024-01-06T13:19:51.464Z,12.07
2024-01-06T13:22:21.542Z,12.30
2024-01-06T13:24:49.748Z,11.60
2024-01-06T13:27:18.182Z,12.03
2024-01-06T13:29:45.105Z,11.33
2024-01-06T13:32:12.446Z,13.07
2024-01-06T13:34:39.517Z,16.90
2024-01-06T13:37:08.178Z,16.47
2024-01-06T13:39:35.384Z,15.50
2024-01-06T13:42:04.468Z,13.27
2024-01-06T13:44:31.465Z,12.87
2024-01-06T13:46:58.450Z,14.10
2024-01-06T13:49:25.570Z,12.97
2024-01-06T13:51:52.756Z,15.70
2024-01-06T13:54:20.756Z,14.40
2024-01-06T13:56:47.795Z,14.63
2024-01-06T13:59:14.860Z,13.27
2024-01-06T14:01:42.092Z,13.33
2024-01-06T14:04:09.304Z,13.60
2024-01-06T14:06:36.614Z,15.27
2024-01-06T14:09:03.604Z,16.10
2024-01-06T14:11:31.944Z,14.13
2024-01-06T14:13:59.745Z,15.13
2024-01-06T14:16:27.151Z,16.23
2024-01-06T14:18:54.334Z,17.30
2024-01-06T14:21:21.523Z,19.40
2024-01-06T14:23:51.672Z,18.90
2024-01-06T14:26:21.922Z,18.33
2024-01-06T14:28:49.643Z,17.63
2024-01-06T14:31:17.052Z,16.70
2024-01-06T14:33:44.327Z,16.43
2024-01-06T14:36:11.402Z,17.40
2024-01-06T14:38:38.849Z,15.97
2024-01-06T14:41:06.295Z,16.53
2024-01-06T14:43:33.433Z,15.77
2024-01-06T14:46:00.577Z,17.47
2024-01-06T14:48:27.827Z,16.10
2024-01-06T14:50:55.155Z,15.90
2024-01-06T14:53:22.140Z,15.60
2024-01-06T14:55:49.157Z,16.97
2024-01-06T14:58:16.170Z,17.93
2024-01-06T15:00:43.288Z,15.50
2024-01-06T15:03:10.406Z,16.90
2024-01-06T15:05:37.365Z,16.80
2024-01-06T15:08:04.694Z,15.60
2024-01-06T15:10:31.846Z,16.00
2024-01-06T15:12:58.926Z,14.37
2024-01-06T15:15:26.003Z,15.40
2024-01-06T15:17:53.011Z,15.03
2024-01-06T15:20:20.152Z,17.53
2024-01-06T15:22:47.122Z,15.30
2024-01-06T15:25:14.273Z,14.97
2024-01-06T15:27:41.480Z,15.33
2024-01-06T15:30:10.017Z,15.03
2024-01-06T15:32:38.680Z,15.00
2024-01-06T15:35:07.522Z,13.80
2024-01-06T15:37:34.690Z,13.37
2024-01-06T15:40:01.841Z,15.33
2024-01-06T15:42:29.660Z,14.73
2024-01-06T15:44:56.847Z,14.03
2024-01-06T15:47:23.860Z,14.87
2024-01-06T15:49:51.011Z,14.93
2024-01-06T15:52:22.293Z,14.50
2024-01-06T15:54:52.792Z,15.33
2024-01-06T15:57:19.920Z,14.47
2024-01-06T15:59:46.960Z,15.10
2024-01-06T16:02:14.098Z,13.90
2024-01-06T16:04:41.170Z,14.90
2024-01-06T16:07:08.287Z,13.60
2024-01-06T16:09:35.406Z,15.07
2024-01-06T16:12:05.207Z,14.30
2024-01-06T16:14:34.179Z,15.87
2024-01-06T16:17:02.962Z,13.87
2024-01-06T16:19:30.118Z,14.80
2024-01-06T16:22:07.667Z,13.10
2024-01-06T16:24:42.193Z,14.63
2024-01-06T16:27:09.328Z,13.90
2024-01-06T16:29:39.282Z,14.17
2024-01-06T16:32:07.085Z,14.47
2024-01-06T16:34:36.249Z,13.83
2024-01-06T16:37:03.692Z,15.60
2024-01-06T16:39:32.777Z,15.43
2024-01-06T16:42:00.748Z,13.90
2024-01-06T16:44:30.169Z,13.73
2024-01-06T16:46:59.807Z,14.10
2024-01-06T16:49:28.844Z,15.30
2024-01-06T16:51:58.036Z,14.30
2024-01-06T16:54:26.562Z,14.17
2024-01-06T16:56:53.649Z,13.50
2024-01-06T16:59:20.786Z,16.07
2024-01-06T17:01:47.821Z,14.10
2024-01-06T17:04:14.917Z,13.97
2024-01-06T17:06:42.066Z,15.23
2024-01-06T17:09:09.075Z,13.30
2024-01-06T17:11:37.436Z,14.67
2024-01-06T17:14:04.379Z,14.50
2024-01-06T17:16:31.793Z,14.23
2024-01-06T17:18:58.857Z,15.73
2024-01-06T17:21:26.053Z,13.93
2024-01-06T17:23:53.970Z,15.17
2024-01-06T17:26:21.089Z,14.30
2024-01-06T17:28:48.174Z,15.17
2024-01-06T17:31:15.977Z,16.13
2024-01-06T17:33:43.198Z,16.53
2024-01-06T17:36:10.254Z,15.60
2024-01-06T17:38:37.339Z,15.60
2024-01-06T17:41:04.912Z,14.50
2024-01-06T17:43:33.200Z,13.83
2024-01-06T17:46:00.298Z,14.67
2024-01-06T17:48:27.590Z,16.80
2024-01-06T17:50:54.610Z,15.93
2024-01-06T17:53:21.969Z,16.60
2024-01-06T17:55:49.108Z,16.03
2024-01-06T17:58:16.252Z,17.13
2024-01-06T18:00:43.648Z,17.93
2024-01-06T18:03:10.734Z,16.60
2024-01-06T18:05:37.732Z,17.60
2024-01-06T18:08:05.172Z,17.40
2024-01-06T18:10:32.284Z,17.60
2024-01-06T18:12:59.554Z,18.70
2024-01-06T18:15:30.096Z,18.30
2024-01-06T18:17:58.658Z,22.80
2024-01-06T18:20:25.786Z,23.70
2024-01-06T18:22:52.772Z,22.63
2024-01-06T18:25:19.700Z,22.70
2024-01-06T18:27:46.766Z,22.70
2024-01-06T18:30:14.975Z,22.67
2024-01-06T18:32:42.118Z,24.60
2024-01-06T18:35:09.593Z,20.83
2024-01-06T18:37:36.750Z,18.00
2024-01-06T18:40:05.811Z,18.00
2024-01-06T18:42:34.116Z,17.43
2024-01-06T18:45:01.715Z,17.70
2024-01-06T18:47:29.814Z,18.83
2024-01-06T18:49:57.612Z,19.97
2024-01-06T18:52:24.776Z,21.80
2024-01-06T18:54:51.913Z,21.13
2024-01-06T18:57:19.464Z,20.73
2024-01-06T18:59:46.763Z,20.83
2024-01-06T19:02:14.674Z,23.27
2024-01-06T19:04:43.344Z,22.30
2024-01-06T19:07:11.334Z,20.57
2024-01-06T19:09:38.410Z,18.30
2024-01-06T19:12:06.694Z,18.80
2024-01-06T19:14:37.080Z,19.20
2024-01-06T19:17:04.700Z,19.60
2024-01-06T19:19:32.046Z,18.07
2024-01-06T19:21:59.368Z,20.63
2024-01-06T19:24:32.646Z,21.63
2024-01-06T19:27:06.711Z,22.47
2024-01-06T19:29:33.799Z,20.70
2024-01-06T19:32:00.805Z,21.53
2024-01-06T19:34:27.820Z,18.93
2024-01-06T19:36:54.924Z,22.40
2024-01-06T19:39:21.848Z,19.13
2024-01-06T19:41:48.817Z,18.20
2024-01-06T19:44:16.676Z,20.10
2024-01-06T19:46:44.269Z,21.73
2024-01-06T19:49:11.436Z,20.47
2024-01-06T19:51:38.568Z,22.67
2024-01-06T19:54:07.008Z,21.83
2024-01-06T19:56:34.991Z,26.47
2024-01-06T19:59:01.960Z,28.00
2024-01-06T20:01:29.136Z,25.63
2024-01-06T20:03:56.265Z,27.27
2024-01-06T20:06:23.458Z,24.00
2024-01-06T20:08:50.412Z,23.57
2024-01-06T20:11:17.385Z,24.70
2024-01-06T20:13:44.340Z,23.80
2024-01-06T20:16:12.041Z,24.20
2024-01-06T20:18:39.054Z,25.57
2024-01-06T20:21:06.089Z,20.67
2024-01-06T20:23:33.277Z,23.07
2024-01-06T20:26:00.291Z,22.23
2024-01-06T20:28:27.277Z,23.80
2024-01-06T20:30:54.343Z,21.83
2024-01-06T20:33:21.595Z,24.57
2024-01-06T20:35:49.038Z,19.40
2024-01-06T20:38:16.240Z,19.80
2024-01-06T20:40:43.743Z,18.30
2024-01-06T20:43:11.173Z,20.07
2024-01-06T20:45:38.166Z,18.70
2024-01-06T20:48:07.735Z,18.10
2024-01-06T20:50:34.758Z,22.80
2024-01-06T20:53:01.996Z,22.37
2024-01-06T20:55:29.022Z,22.73
2024-01-06T20:57:57.144Z,21.00
2024-01-06T21:00:25.523Z,24.93
2024-01-06T21:02:53.228Z,24.73
2024-01-06T21:05:20.218Z,25.60
2024-01-06T21:07:48.887Z,25.87
2024-01-06T21:10:16.182Z,24.13
2024-01-06T21:12:44.232Z,25.10
2024-01-06T21:15:11.522Z,24.83
2024-01-06T21:17:39.810Z,27.67
2024-01-06T21:20:08.447Z,29.67
2024-01-06T21:22:35.514Z,28.27
2024-01-06T21:25:04.878Z,26.73
2024-01-06T21:27:35.169Z,27.63
2024-01-06T21:30:06.411Z,29.07
2024-01-06T21:32:34.659Z,28.93
2024-01-06T21:35:04.860Z,29.97
2024-01-06T21:37:33.727Z,30.03
2024-01-06T21:40:06.394Z,31.10
2024-01-06T21:42:33.854Z,31.57
2024-01-06T21:45:01.388Z,31.63
2024-01-06T21:47:28.436Z,33.13
2024-01-06T21:49:56.274Z,31.90
2024-01-06T21:52:23.365Z,28.77
2024-01-06T21:54:50.457Z,30.13
2024-01-06T21:57:17.484Z,30.80
2024-01-06T21:59:44.478Z,28.57
2024-01-06T22:02:11.436Z,27.73
2024-01-06T22:04:40.931Z,29.30
2024-01-06T22:07:08.027Z,28.50
2024-01-06T22:09:35.093Z,28.40
2024-01-06T22:12:02.390Z,26.23
2024-01-06T22:14:30.646Z,25.50
2024-01-06T22:16:57.912Z,26.70
2024-01-06T22:19:25.432Z,24.43
2024-01-06T22:21:52.508Z,26.00
2024-01-06T22:24:19.547Z,24.53
2024-01-06T22:26:46.937Z,24.23
2024-01-06T22:29:14.120Z,23.83
2024-01-06T22:31:44.786Z,25.53
2024-01-06T22:34:14.375Z,25.07
2024-01-06T22:36:41.905Z,23.33
2024-01-06T22:39:08.912Z,24.30
2024-01-06T22:41:36.008Z,24.90
2024-01-06T22:44:03.176Z,25.47
2024-01-06T22:46:30.814Z,25.90
2024-01-06T22:48:58.154Z,24.33
2024-01-06T22:51:26.187Z,23.83
2024-01-06T22:53:53.173Z,22.63
2024-01-06T22:56:20.239Z,23.57
2024-01-06T22:58:47.400Z,23.73
2024-01-06T23:01:14.484Z,22.00
2024-01-06T23:03:41.836Z,22.10
2024-01-06T23:06:09.526Z,23.27
2024-01-06T23:08:36.779Z,21.10
2024-01-06T23:11:04.865Z,19.67
2024-01-06T23:13:32.224Z,20.80
2024-01-06T23:15:59.726Z,20.57
2024-01-06T23:18:27.138Z,22.77
2024-01-06T23:20:54.144Z,20.47
2024-01-06T23:23:21.072Z,19.90
2024-01-06T23:25:48.050Z,22.30
2024-01-06T23:28:15.469Z,19.97
2024-01-06T23:30:42.732Z,23.10
2024-01-06T23:33:09.901Z,20.97
2024-01-06T23:35:37.601Z,22.90
2024-01-06T23:38:04.940Z,20.60
2024-01-06T23:40:32.264Z,21.50
2024-01-06T23:42:59.340Z,21.40
2024-01-06T23:45:26.742Z,21.53
2024-01-06T23:47:54.407Z,22.97
2024-01-06T23:50:21.803Z,22.30
2024-01-06T23:52:48.964Z,22.70
2024-01-06T23:55:16.429Z,22.20
2024-01-06T23:57:43.515Z,18.57
